sensor_id;sensor_type;location;lat;lon;timestamp;temperature;humidity
26821;DHT22;37186;51.394;5.454;2022-11-20T00:01:50;5.60;79.50
26821;DHT22;37186;51.394;5.454;2022-11-20T00:04:50;5.50;79.40
26821;DHT22;37186;51.394;5.454;2022-11-20T00:07:51;5.50;79.30
26821;DHT22;37186;51.394;5.454;2022-11-20T00:10:51;5.40;79.20
26821;DHT22;37186;51.394;5.454;2022-11-20T00:13:54;5.40;79.20
26821;DHT22;37186;51.394;5.454;2022-11-20T00:16:55;5.40;79.30
26821;DHT22;37186;51.394;5.454;2022-11-20T00:19:56;5.40;79.20
26821;DHT22;37186;51.394;5.454;2022-11-20T00:22:56;5.30;79.30
26821;DHT22;37186;51.394;5.454;2022-11-20T00:26:00;5.30;79.30
26821;DHT22;37186;51.394;5.454;2022-11-20T00:29:01;5.30;79.30
26821;DHT22;37186;51.394;5.454;2022-11-20T00:32:01;5.20;79.10
26821;DHT22;37186;51.394;5.454;2022-11-20T00:35:02;5.20;79.10
26821;DHT22;37186;51.394;5.454;2022-11-20T00:38:03;5.20;79.20
26821;DHT22;37186;51.394;5.454;2022-11-20T00:41:05;5.10;79.10
26821;DHT22;37186;51.394;5.454;2022-11-20T00:44:06;5.10;79.10
26821;DHT22;37186;51.394;5.454;2022-11-20T00:47:07;5.10;79.00
26821;DHT22;37186;51.394;5.454;2022-11-20T00:50:07;5.00;79.10
26821;DHT22;37186;51.394;5.454;2022-11-20T00:53:08;5.00;79.10
26821;DHT22;37186;51.394;5.454;2022-11-20T00:56:11;5.00;79.10
26821;DHT22;37186;51.394;5.454;2022-11-20T00:59:12;4.90;79.10
26821;DHT22;37186;51.394;5.454;2022-11-20T01:02:13;4.90;79.00
26821;DHT22;37186;51.394;5.454;2022-11-20T01:05:15;4.80;79.00
26821;DHT22;37186;51.394;5.454;2022-11-20T01:08:16;4.80;79.00
26821;DHT22;37186;51.394;5.454;2022-11-20T01:11:19;4.80;79.00
26821;DHT22;37186;51.394;5.454;2022-11-20T01:14:20;4.80;79.20
26821;DHT22;37186;51.394;5.454;2022-11-20T01:17:20;4.70;79.10
26821;DHT22;37186;51.394;5.454;2022-11-20T01:20:21;4.70;79.00
26821;DHT22;37186;51.394;5.454;2022-11-20T01:23:21;4.70;79.10
26821;DHT22;37186;51.394;5.454;2022-11-20T01:26:25;4.70;79.00
26821;DHT22;37186;51.394;5.454;2022-11-20T01:29:25;4.60;79.10
26821;DHT22;37186;51.394;5.454;2022-11-20T01:32:26;4.60;79.20
26821;DHT22;37186;51.394;5.454;2022-11-20T01:35:26;4.60;79.20
26821;DHT22;37186;51.394;5.454;2022-11-20T01:38:27;4.60;79.30
26821;DHT22;37186;51.394;5.454;2022-11-20T01:41:29;4.60;79.30
26821;DHT22;37186;51.394;5.454;2022-11-20T01:47:51;4.60;79.40
26821;DHT22;37186;51.394;5.454;2022-11-20T01:50:52;4.60;79.40
26821;DHT22;37186;51.394;5.454;2022-11-20T01:53:55;4.60;79.40
26821;DHT22;37186;51.394;5.454;2022-11-20T01:56:58;4.60;79.40
26821;DHT22;37186;51.394;5.454;2022-11-20T02:00:03;4.50;79.40
26821;DHT22;37186;51.394;5.454;2022-11-20T02:03:09;4.60;79.40
26821;DHT22;37186;51.394;5.454;2022-11-20T02:06:32;4.60;79.40
26821;DHT22;37186;51.394;5.454;2022-11-20T02:09:35;4.60;79.50
26821;DHT22;37186;51.394;5.454;2022-11-20T02:12:35;4.60;79.50
26821;DHT22;37186;51.394;5.454;2022-11-20T02:16:03;4.60;79.60
26821;DHT22;37186;51.394;5.454;2022-11-20T02:19:07;4.50;79.50
26821;DHT22;37186;51.394;5.454;2022-11-20T02:22:31;4.60;79.60
26821;DHT22;37186;51.394;5.454;2022-11-20T02:25:35;4.60;79.70
26821;DHT22;37186;51.394;5.454;2022-11-20T02:28:37;4.60;79.60
26821;DHT22;37186;51.394;5.454;2022-11-20T02:31:41;4.60;79.60
26821;DHT22;37186;51.394;5.454;2022-11-20T02:34:42;4.60;79.60
26821;DHT22;37186;51.394;5.454;2022-11-20T02:37:43;4.60;79.60
26821;DHT22;37186;51.394;5.454;2022-11-20T02:40:44;4.60;79.60
26821;DHT22;37186;51.394;5.454;2022-11-20T02:43:45;4.60;79.60
26821;DHT22;37186;51.394;5.454;2022-11-20T02:46:46;4.60;79.70
26821;DHT22;37186;51.394;5.454;2022-11-20T02:49:46;4.60;79.70
26821;DHT22;37186;51.394;5.454;2022-11-20T02:52:47;4.60;79.60
26821;DHT22;37186;51.394;5.454;2022-11-20T02:55:47;4.60;79.70
26821;DHT22;37186;51.394;5.454;2022-11-20T02:58:48;4.60;79.70
26821;DHT22;37186;51.394;5.454;2022-11-20T03:01:48;4.60;79.70
26821;DHT22;37186;51.394;5.454;2022-11-20T03:04:49;4.60;79.70
26821;DHT22;37186;51.394;5.454;2022-11-20T03:07:50;4.70;79.70
26821;DHT22;37186;51.394;5.454;2022-11-20T03:10:50;4.60;79.60
26821;DHT22;37186;51.394;5.454;2022-11-20T03:13:51;4.70;79.70
26821;DHT22;37186;51.394;5.454;2022-11-20T03:16:51;4.60;79.60
26821;DHT22;37186;51.394;5.454;2022-11-20T03:19:52;4.60;79.70
26821;DHT22;37186;51.394;5.454;2022-11-20T03:22:54;4.70;79.50
26821;DHT22;37186;51.394;5.454;2022-11-20T03:25:55;4.60;79.60
26821;DHT22;37186;51.394;5.454;2022-11-20T03:28:57;4.70;79.70
26821;DHT22;37186;51.394;5.454;2022-11-20T03:31:58;4.70;79.60
26821;DHT22;37186;51.394;5.454;2022-11-20T03:34:59;4.70;79.50
26821;DHT22;37186;51.394;5.454;2022-11-20T03:37:59;4.70;79.60
26821;DHT22;37186;51.394;5.454;2022-11-20T03:41:02;4.70;79.60
26821;DHT22;37186;51.394;5.454;2022-11-20T03:44:04;4.70;79.70
26821;DHT22;37186;51.394;5.454;2022-11-20T03:47:05;4.70;79.60
26821;DHT22;37186;51.394;5.454;2022-11-20T03:50:07;4.70;79.60
26821;DHT22;37186;51.394;5.454;2022-11-20T03:53:07;4.70;79.70
26821;DHT22;37186;51.394;5.454;2022-11-20T03:56:09;4.70;79.70
26821;DHT22;37186;51.394;5.454;2022-11-20T03:59:10;4.70;79.70
26821;DHT22;37186;51.394;5.454;2022-11-20T04:02:11;4.70;79.70
26821;DHT22;37186;51.394;5.454;2022-11-20T04:05:11;4.80;79.70
26821;DHT22;37186;51.394;5.454;2022-11-20T04:08:12;4.80;79.70
26821;DHT22;37186;51.394;5.454;2022-11-20T04:11:14;4.70;79.70
26821;DHT22;37186;51.394;5.454;2022-11-20T04:14:16;4.80;79.70
26821;DHT22;37186;51.394;5.454;2022-11-20T04:17:16;4.80;79.70
26821;DHT22;37186;51.394;5.454;2022-11-20T04:20:17;4.80;79.80
26821;DHT22;37186;51.394;5.454;2022-11-20T04:23:17;4.80;79.70
26821;DHT22;37186;51.394;5.454;2022-11-20T04:26:18;4.80;79.70
26821;DHT22;37186;51.394;5.454;2022-11-20T04:29:19;4.80;79.60
26821;DHT22;37186;51.394;5.454;2022-11-20T04:32:20;4.80;79.60
26821;DHT22;37186;51.394;5.454;2022-11-20T04:35:20;4.80;79.60
26821;DHT22;37186;51.394;5.454;2022-11-20T04:38:21;4.80;79.50
26821;DHT22;37186;51.394;5.454;2022-11-20T04:41:23;4.80;79.60
26821;DHT22;37186;51.394;5.454;2022-11-20T04:44:24;4.80;79.60
26821;DHT22;37186;51.394;5.454;2022-11-20T04:47:24;4.80;79.70
26821;DHT22;37186;51.394;5.454;2022-11-20T04:50:25;4.80;79.70
26821;DHT22;37186;51.394;5.454;2022-11-20T04:53:26;4.80;79.60
26821;DHT22;37186;51.394;5.454;2022-11-20T04:56:27;4.80;79.60
26821;DHT22;37186;51.394;5.454;2022-11-20T04:59:27;4.80;79.70
26821;DHT22;37186;51.394;5.454;2022-11-20T05:02:28;4.80;79.70
26821;DHT22;37186;51.394;5.454;2022-11-20T05:05:30;4.90;79.70
26821;DHT22;37186;51.394;5.454;2022-11-20T05:08:31;4.90;79.70
26821;DHT22;37186;51.394;5.454;2022-11-20T05:11:32;4.90;79.70
26821;DHT22;37186;51.394;5.454;2022-11-20T05:14:32;4.90;79.70
26821;DHT22;37186;51.394;5.454;2022-11-20T05:17:33;4.90;79.70
26821;DHT22;37186;51.394;5.454;2022-11-20T05:20:33;4.90;79.70
26821;DHT22;37186;51.394;5.454;2022-11-20T05:23:36;4.90;79.70
26821;DHT22;37186;51.394;5.454;2022-11-20T05:26:37;4.90;79.70
26821;DHT22;37186;51.394;5.454;2022-11-20T05:29:38;4.90;79.70
26821;DHT22;37186;51.394;5.454;2022-11-20T05:32:38;4.90;79.70
26821;DHT22;37186;51.394;5.454;2022-11-20T05:35:39;4.90;79.80
26821;DHT22;37186;51.394;5.454;2022-11-20T05:38:39;4.90;79.70
26821;DHT22;37186;51.394;5.454;2022-11-20T05:41:40;4.90;79.70
26821;DHT22;37186;51.394;5.454;2022-11-20T05:44:40;4.90;79.80
26821;DHT22;37186;51.394;5.454;2022-11-20T05:47:41;4.90;79.80
26821;DHT22;37186;51.394;5.454;2022-11-20T05:50:41;4.90;79.70
26821;DHT22;37186;51.394;5.454;2022-11-20T05:53:42;4.90;79.70
26821;DHT22;37186;51.394;5.454;2022-11-20T05:56:43;4.90;79.70
26821;DHT22;37186;51.394;5.454;2022-11-20T05:59:43;4.90;79.70
26821;DHT22;37186;51.394;5.454;2022-11-20T06:02:44;4.90;79.60
26821;DHT22;37186;51.394;5.454;2022-11-20T06:05:45;4.90;79.70
26821;DHT22;37186;51.394;5.454;2022-11-20T06:08:45;4.90;79.70
26821;DHT22;37186;51.394;5.454;2022-11-20T06:11:46;4.90;79.70
26821;DHT22;37186;51.394;5.454;2022-11-20T06:14:46;4.90;79.70
26821;DHT22;37186;51.394;5.454;2022-11-20T06:17:47;4.90;79.80
26821;DHT22;37186;51.394;5.454;2022-11-20T06:20:47;4.90;79.80
26821;DHT22;37186;51.394;5.454;2022-11-20T06:23:49;4.90;79.80
26821;DHT22;37186;51.394;5.454;2022-11-20T06:26:50;4.90;79.70
26821;DHT22;37186;51.394;5.454;2022-11-20T06:29:50;4.90;79.80
26821;DHT22;37186;51.394;5.454;2022-11-20T06:32:51;4.90;79.80
26821;DHT22;37186;51.394;5.454;2022-11-20T06:35:52;4.90;79.80
26821;DHT22;37186;51.394;5.454;2022-11-20T06:38:52;5.00;79.80
26821;DHT22;37186;51.394;5.454;2022-11-20T06:41:53;4.90;79.80
26821;DHT22;37186;51.394;5.454;2022-11-20T06:44:53;4.90;79.80
26821;DHT22;37186;51.394;5.454;2022-11-20T06:47:54;5.00;80.00
26821;DHT22;37186;51.394;5.454;2022-11-20T06:50:57;4.90;79.90
26821;DHT22;37186;51.394;5.454;2022-11-20T06:53:58;5.00;80.00
26821;DHT22;37186;51.394;5.454;2022-11-20T06:56:58;4.90;79.80
26821;DHT22;37186;51.394;5.454;2022-11-20T06:59:59;5.00;80.00
26821;DHT22;37186;51.394;5.454;2022-11-20T07:03:06;5.00;79.90
26821;DHT22;37186;51.394;5.454;2022-11-20T07:06:07;5.00;79.90
26821;DHT22;37186;51.394;5.454;2022-11-20T07:09:09;5.00;79.80
26821;DHT22;37186;51.394;5.454;2022-11-20T07:12:09;5.00;79.90
26821;DHT22;37186;51.394;5.454;2022-11-20T07:15:10;5.00;80.00
26821;DHT22;37186;51.394;5.454;2022-11-20T07:18:10;5.00;79.90
26821;DHT22;37186;51.394;5.454;2022-11-20T07:21:11;5.00;79.90
26821;DHT22;37186;51.394;5.454;2022-11-20T07:24:12;5.00;80.00
26821;DHT22;37186;51.394;5.454;2022-11-20T07:27:12;5.00;80.00
26821;DHT22;37186;51.394;5.454;2022-11-20T07:30:14;5.00;80.00
26821;DHT22;37186;51.394;5.454;2022-11-20T07:33:14;5.00;79.90
26821;DHT22;37186;51.394;5.454;2022-11-20T07:36:15;5.10;80.00
26821;DHT22;37186;51.394;5.454;2022-11-20T07:39:15;5.10;80.00
26821;DHT22;37186;51.394;5.454;2022-11-20T07:42:16;5.10;80.00
26821;DHT22;37186;51.394;5.454;2022-11-20T07:45:21;5.10;80.00
26821;DHT22;37186;51.394;5.454;2022-11-20T07:48:23;5.10;80.00
26821;DHT22;37186;51.394;5.454;2022-11-20T07:51:23;5.10;80.00
26821;DHT22;37186;51.394;5.454;2022-11-20T07:54:24;5.10;80.00
26821;DHT22;37186;51.394;5.454;2022-11-20T07:57:24;5.10;80.00
26821;DHT22;37186;51.394;5.454;2022-11-20T08:00:25;5.10;80.00
26821;DHT22;37186;51.394;5.454;2022-11-20T08:03:26;5.10;80.00
26821;DHT22;37186;51.394;5.454;2022-11-20T08:06:26;5.10;80.00
26821;DHT22;37186;51.394;5.454;2022-11-20T08:09:27;5.10;80.00
26821;DHT22;37186;51.394;5.454;2022-11-20T08:12:29;5.20;80.10
26821;DHT22;37186;51.394;5.454;2022-11-20T08:15:49;5.10;80.10
26821;DHT22;37186;51.394;5.454;2022-11-20T08:18:53;5.10;80.00
26821;DHT22;37186;51.394;5.454;2022-11-20T08:21:55;5.20;80.10
26821;DHT22;37186;51.394;5.454;2022-11-20T08:24:55;5.20;80.10
26821;DHT22;37186;51.394;5.454;2022-11-20T08:28:00;5.20;80.10
26821;DHT22;37186;51.394;5.454;2022-11-20T08:31:01;5.20;80.10
26821;DHT22;37186;51.394;5.454;2022-11-20T08:34:02;5.20;80.20
26821;DHT22;37186;51.394;5.454;2022-11-20T08:37:03;5.20;80.20
26821;DHT22;37186;51.394;5.454;2022-11-20T08:40:04;5.20;80.20
26821;DHT22;37186;51.394;5.454;2022-11-20T08:43:04;5.20;80.20
26821;DHT22;37186;51.394;5.454;2022-11-20T08:46:05;5.30;80.10
26821;DHT22;37186;51.394;5.454;2022-11-20T08:49:07;5.30;80.20
26821;DHT22;37186;51.394;5.454;2022-11-20T08:52:08;5.30;80.30
26821;DHT22;37186;51.394;5.454;2022-11-20T08:55:09;5.30;80.30
26821;DHT22;37186;51.394;5.454;2022-11-20T08:58:10;5.30;80.30
26821;DHT22;37186;51.394;5.454;2022-11-20T09:01:10;5.30;80.30
26821;DHT22;37186;51.394;5.454;2022-11-20T09:04:11;5.30;80.30
26821;DHT22;37186;51.394;5.454;2022-11-20T09:07:13;5.40;80.40
26821;DHT22;37186;51.394;5.454;2022-11-20T09:10:14;5.40;80.40
26821;DHT22;37186;51.394;5.454;2022-11-20T09:13:14;5.40;80.50
26821;DHT22;37186;51.394;5.454;2022-11-20T09:16:15;5.40;80.40
26821;DHT22;37186;51.394;5.454;2022-11-20T09:19:16;5.40;80.40
26821;DHT22;37186;51.394;5.454;2022-11-20T09:22:16;5.50;80.50
26821;DHT22;37186;51.394;5.454;2022-11-20T09:25:17;5.50;80.50
26821;DHT22;37186;51.394;5.454;2022-11-20T09:28:18;5.50;80.50
26821;DHT22;37186;51.394;5.454;2022-11-20T09:31:23;5.60;80.60
26821;DHT22;37186;51.394;5.454;2022-11-20T09:34:24;5.60;80.60
26821;DHT22;37186;51.394;5.454;2022-11-20T09:37:25;5.60;80.60
26821;DHT22;37186;51.394;5.454;2022-11-20T09:40:28;5.60;80.60
26821;DHT22;37186;51.394;5.454;2022-11-20T09:46:53;5.60;80.60
26821;DHT22;37186;51.394;5.454;2022-11-20T09:57:12;5.70;80.80
26821;DHT22;37186;51.394;5.454;2022-11-20T10:00:15;5.80;80.80
26821;DHT22;37186;51.394;5.454;2022-11-20T10:03:54;5.80;80.80
26821;DHT22;37186;51.394;5.454;2022-11-20T10:07:13;5.80;80.80
26821;DHT22;37186;51.394;5.454;2022-11-20T10:14:01;5.90;81.00
26821;DHT22;37186;51.394;5.454;2022-11-20T10:17:39;5.90;81.00
26821;DHT22;37186;51.394;5.454;2022-11-20T10:28:09;6.00;81.00
26821;DHT22;37186;51.394;5.454;2022-11-20T10:31:34;6.10;81.10
26821;DHT22;37186;51.394;5.454;2022-11-20T10:37:47;6.10;81.10
26821;DHT22;37186;51.394;5.454;2022-11-20T10:40:53;6.20;81.10
26821;DHT22;37186;51.394;5.454;2022-11-20T10:44:20;6.20;81.20
26821;DHT22;37186;51.394;5.454;2022-11-20T10:47:39;6.20;81.20
26821;DHT22;37186;51.394;5.454;2022-11-20T10:50:47;6.30;81.20
26821;DHT22;37186;51.394;5.454;2022-11-20T10:54:06;6.30;81.20
26821;DHT22;37186;51.394;5.454;2022-11-20T11:00:31;6.40;81.20
26821;DHT22;37186;51.394;5.454;2022-11-20T11:03:32;6.40;81.30
26821;DHT22;37186;51.394;5.454;2022-11-20T11:06:39;6.40;81.20
26821;DHT22;37186;51.394;5.454;2022-11-20T11:09:48;6.50;81.30
26821;DHT22;37186;51.394;5.454;2022-11-20T11:12:49;6.50;81.30
26821;DHT22;37186;51.394;5.454;2022-11-20T11:15:51;6.50;81.30
26821;DHT22;37186;51.394;5.454;2022-11-20T11:19:12;6.50;81.30
26821;DHT22;37186;51.394;5.454;2022-11-20T11:22:18;6.60;81.30
26821;DHT22;37186;51.394;5.454;2022-11-20T11:25:28;6.60;81.30
26821;DHT22;37186;51.394;5.454;2022-11-20T11:28:29;6.60;81.30
26821;DHT22;37186;51.394;5.454;2022-11-20T11:31:32;6.60;81.30
26821;DHT22;37186;51.394;5.454;2022-11-20T11:34:33;6.70;81.30
26821;DHT22;37186;51.394;5.454;2022-11-20T11:37:36;6.70;81.30
26821;DHT22;37186;51.394;5.454;2022-11-20T11:40:39;6.70;81.30
26821;DHT22;37186;51.394;5.454;2022-11-20T11:43:54;6.70;81.30
26821;DHT22;37186;51.394;5.454;2022-11-20T11:47:29;6.70;81.30
26821;DHT22;37186;51.394;5.454;2022-11-20T11:50:31;6.80;81.40
26821;DHT22;37186;51.394;5.454;2022-11-20T11:53:40;6.70;81.40
26821;DHT22;37186;51.394;5.454;2022-11-20T11:56:42;6.80;81.40
26821;DHT22;37186;51.394;5.454;2022-11-20T12:00:12;6.80;81.40
26821;DHT22;37186;51.394;5.454;2022-11-20T12:03:27;6.80;81.40
26821;DHT22;37186;51.394;5.454;2022-11-20T12:06:28;6.80;81.40
26821;DHT22;37186;51.394;5.454;2022-11-20T12:09:37;6.90;81.50
26821;DHT22;37186;51.394;5.454;2022-11-20T12:12:44;6.90;81.50
26821;DHT22;37186;51.394;5.454;2022-11-20T12:15:46;6.90;81.50
26821;DHT22;37186;51.394;5.454;2022-11-20T12:18:51;7.00;81.60
26821;DHT22;37186;51.394;5.454;2022-11-20T12:22:19;7.00;81.60
26821;DHT22;37186;51.394;5.454;2022-11-20T12:25:34;7.00;81.60
26821;DHT22;37186;51.394;5.454;2022-11-20T12:36:01;7.10;81.70
26821;DHT22;37186;51.394;5.454;2022-11-20T12:39:22;7.10;81.70
26821;DHT22;37186;51.394;5.454;2022-11-20T12:42:50;7.10;81.70
26821;DHT22;37186;51.394;5.454;2022-11-20T12:49:40;7.20;81.80
26821;DHT22;37186;51.394;5.454;2022-11-20T13:06:07;7.30;81.90
26821;DHT22;37186;51.394;5.454;2022-11-20T13:09:14;7.40;82.00
26821;DHT22;37186;51.394;5.454;2022-11-20T13:12:43;7.40;81.90
26821;DHT22;37186;51.394;5.454;2022-11-20T13:16:02;7.40;82.00
26821;DHT22;37186;51.394;5.454;2022-11-20T13:19:13;7.40;82.00
26821;DHT22;37186;51.394;5.454;2022-11-20T13:22:25;7.50;82.00
26821;DHT22;37186;51.394;5.454;2022-11-20T13:25:36;7.50;82.00
26821;DHT22;37186;51.394;5.454;2022-11-20T13:28:37;7.50;82.00
26821;DHT22;37186;51.394;5.454;2022-11-20T13:31:43;7.50;82.00
26821;DHT22;37186;51.394;5.454;2022-11-20T13:34:55;7.60;82.10
26821;DHT22;37186;51.394;5.454;2022-11-20T13:41:01;7.60;82.00
26821;DHT22;37186;51.394;5.454;2022-11-20T13:44:39;7.70;82.10
26821;DHT22;37186;51.394;5.454;2022-11-20T13:47:50;7.70;82.10
26821;DHT22;37186;51.394;5.454;2022-11-20T14:00:57;7.80;82.10
26821;DHT22;37186;51.394;5.454;2022-11-20T14:03:58;7.80;82.20
26821;DHT22;37186;51.394;5.454;2022-11-20T14:07:01;7.80;82.10
26821;DHT22;37186;51.394;5.454;2022-11-20T14:10:02;7.80;82.10
26821;DHT22;37186;51.394;5.454;2022-11-20T14:13:18;7.90;82.90
26821;DHT22;37186;51.394;5.454;2022-11-20T14:16:23;7.80;82.10
26821;DHT22;37186;51.394;5.454;2022-11-20T14:19:28;7.90;82.10
26821;DHT22;37186;51.394;5.454;2022-11-20T14:22:30;7.90;82.10
26821;DHT22;37186;51.394;5.454;2022-11-20T14:25:31;7.90;82.10
26821;DHT22;37186;51.394;5.454;2022-11-20T14:28:32;7.90;82.20
26821;DHT22;37186;51.394;5.454;2022-11-20T14:31:33;7.90;82.20
26821;DHT22;37186;51.394;5.454;2022-11-20T14:34:38;8.00;82.20
26821;DHT22;37186;51.394;5.454;2022-11-20T14:37:40;7.90;82.10
26821;DHT22;37186;51.394;5.454;2022-11-20T14:40:41;8.00;82.20
26821;DHT22;37186;51.394;5.454;2022-11-20T14:43:46;8.00;82.20
26821;DHT22;37186;51.394;5.454;2022-11-20T14:46:47;8.00;82.20
26821;DHT22;37186;51.394;5.454;2022-11-20T14:49:48;8.00;82.20
26821;DHT22;37186;51.394;5.454;2022-11-20T14:52:57;8.00;82.20
26821;DHT22;37186;51.394;5.454;2022-11-20T14:56:00;8.00;82.20
26821;DHT22;37186;51.394;5.454;2022-11-20T14:59:01;8.00;82.20
26821;DHT22;37186;51.394;5.454;2022-11-20T15:02:20;8.00;82.20
26821;DHT22;37186;51.394;5.454;2022-11-20T15:06:04;8.10;82.20
26821;DHT22;37186;51.394;5.454;2022-11-20T15:08:52;8.10;82.30
26821;DHT22;37186;51.394;5.454;2022-11-20T15:11:58;8.10;82.20
26821;DHT22;37186;51.394;5.454;2022-11-20T15:14:59;8.10;82.20
26821;DHT22;37186;51.394;5.454;2022-11-20T15:18:00;8.10;82.30
26821;DHT22;37186;51.394;5.454;2022-11-20T15:21:03;8.10;82.30
26821;DHT22;37186;51.394;5.454;2022-11-20T15:24:08;8.10;82.20
26821;DHT22;37186;51.394;5.454;2022-11-20T15:27:09;8.10;82.30
26821;DHT22;37186;51.394;5.454;2022-11-20T15:30:15;8.20;82.40
26821;DHT22;37186;51.394;5.454;2022-11-20T15:33:17;8.20;82.40
26821;DHT22;37186;51.394;5.454;2022-11-20T15:36:18;8.20;82.30
26821;DHT22;37186;51.394;5.454;2022-11-20T15:39:18;8.20;82.30
26821;DHT22;37186;51.394;5.454;2022-11-20T15:42:19;8.20;82.30
26821;DHT22;37186;51.394;5.454;2022-11-20T15:45:19;8.20;82.30
26821;DHT22;37186;51.394;5.454;2022-11-20T15:48:23;8.20;82.30
26821;DHT22;37186;51.394;5.454;2022-11-20T15:51:27;8.20;82.40
26821;DHT22;37186;51.394;5.454;2022-11-20T15:54:29;8.20;82.40
26821;DHT22;37186;51.394;5.454;2022-11-20T15:57:29;8.20;82.40
26821;DHT22;37186;51.394;5.454;2022-11-20T16:00:30;8.20;82.40
26821;DHT22;37186;51.394;5.454;2022-11-20T16:03:31;8.30;82.40
26821;DHT22;37186;51.394;5.454;2022-11-20T16:06:31;8.30;82.50
26821;DHT22;37186;51.394;5.454;2022-11-20T16:09:32;8.30;82.50
26821;DHT22;37186;51.394;5.454;2022-11-20T16:12:32;8.30;82.50
26821;DHT22;37186;51.394;5.454;2022-11-20T16:15:54;8.30;82.50
26821;DHT22;37186;51.394;5.454;2022-11-20T16:18:57;8.30;82.50
26821;DHT22;37186;51.394;5.454;2022-11-20T16:21:58;8.30;82.50
26821;DHT22;37186;51.394;5.454;2022-11-20T16:25:01;8.30;82.50
26821;DHT22;37186;51.394;5.454;2022-11-20T16:28:01;8.30;82.60
26821;DHT22;37186;51.394;5.454;2022-11-20T16:31:16;8.30;82.70
26821;DHT22;37186;51.394;5.454;2022-11-20T16:34:17;8.40;82.70
26821;DHT22;37186;51.394;5.454;2022-11-20T16:37:18;8.40;82.70
26821;DHT22;37186;51.394;5.454;2022-11-20T16:40:19;8.40;82.80
26821;DHT22;37186;51.394;5.454;2022-11-20T16:43:19;8.40;82.70
26821;DHT22;37186;51.394;5.454;2022-11-20T16:46:21;8.40;82.70
26821;DHT22;37186;51.394;5.454;2022-11-20T16:49:22;8.40;82.70
26821;DHT22;37186;51.394;5.454;2022-11-20T16:52:24;8.40;82.70
26821;DHT22;37186;51.394;5.454;2022-11-20T16:55:24;8.40;82.70
26821;DHT22;37186;51.394;5.454;2022-11-20T16:58:25;8.50;82.80
26821;DHT22;37186;51.394;5.454;2022-11-20T17:01:26;8.50;82.80
26821;DHT22;37186;51.394;5.454;2022-11-20T17:04:27;8.50;82.80
26821;DHT22;37186;51.394;5.454;2022-11-20T17:07:28;8.50;82.80
26821;DHT22;37186;51.394;5.454;2022-11-20T17:10:28;8.50;82.90
26821;DHT22;37186;51.394;5.454;2022-11-20T17:13:29;8.60;83.00
26821;DHT22;37186;51.394;5.454;2022-11-20T17:16:30;8.60;82.90
26821;DHT22;37186;51.394;5.454;2022-11-20T17:19:30;8.60;83.00
26821;DHT22;37186;51.394;5.454;2022-11-20T17:22:31;8.60;82.90
26821;DHT22;37186;51.394;5.454;2022-11-20T17:25:32;8.60;83.00
26821;DHT22;37186;51.394;5.454;2022-11-20T17:28:34;8.60;83.00
26821;DHT22;37186;51.394;5.454;2022-11-20T17:31:35;8.70;83.10
26821;DHT22;37186;51.394;5.454;2022-11-20T17:34:37;8.70;83.10
26821;DHT22;37186;51.394;5.454;2022-11-20T17:37:38;8.70;83.10
26821;DHT22;37186;51.394;5.454;2022-11-20T17:40:38;8.70;83.10
26821;DHT22;37186;51.394;5.454;2022-11-20T17:43:40;8.80;83.30
26821;DHT22;37186;51.394;5.454;2022-11-20T17:46:42;8.80;84.10
26821;DHT22;37186;51.394;5.454;2022-11-20T17:49:42;8.80;83.30
26821;DHT22;37186;51.394;5.454;2022-11-20T17:52:43;8.80;83.40
26821;DHT22;37186;51.394;5.454;2022-11-20T17:55:43;8.80;83.60
26821;DHT22;37186;51.394;5.454;2022-11-20T17:59:07;8.90;83.60
26821;DHT22;37186;51.394;5.454;2022-11-20T18:02:09;8.90;84.40
26821;DHT22;37186;51.394;5.454;2022-11-20T18:05:12;8.90;83.90
26821;DHT22;37186;51.394;5.454;2022-11-20T18:08:13;9.00;84.10
26821;DHT22;37186;51.394;5.454;2022-11-20T18:11:14;9.00;84.50
26821;DHT22;37186;51.394;5.454;2022-11-20T18:14:16;9.10;85.20
26821;DHT22;37186;51.394;5.454;2022-11-20T18:17:28;9.10;84.80
26821;DHT22;37186;51.394;5.454;2022-11-20T18:20:28;9.10;84.50
26821;DHT22;37186;51.394;5.454;2022-11-20T18:23:29;9.20;85.20
26821;DHT22;37186;51.394;5.454;2022-11-20T18:26:30;9.20;85.00
26821;DHT22;37186;51.394;5.454;2022-11-20T18:29:30;9.20;85.00
26821;DHT22;37186;51.394;5.454;2022-11-20T18:32:33;9.20;85.30
26821;DHT22;37186;51.394;5.454;2022-11-20T18:35:34;9.20;84.90
26821;DHT22;37186;51.394;5.454;2022-11-20T18:38:34;9.30;84.90
26821;DHT22;37186;51.394;5.454;2022-11-20T18:41:35;9.30;84.90
26821;DHT22;37186;51.394;5.454;2022-11-20T18:44:54;9.40;85.20
26821;DHT22;37186;51.394;5.454;2022-11-20T18:47:55;9.30;85.30
26821;DHT22;37186;51.394;5.454;2022-11-20T18:51:04;9.40;85.10
26821;DHT22;37186;51.394;5.454;2022-11-20T18:54:05;9.40;85.60
26821;DHT22;37186;51.394;5.454;2022-11-20T18:57:06;9.40;85.20
26821;DHT22;37186;51.394;5.454;2022-11-20T19:00:09;9.40;85.10
26821;DHT22;37186;51.394;5.454;2022-11-20T19:03:10;9.40;85.20
26821;DHT22;37186;51.394;5.454;2022-11-20T19:06:14;9.50;85.20
26821;DHT22;37186;51.394;5.454;2022-11-20T19:09:15;9.50;85.50
26821;DHT22;37186;51.394;5.454;2022-11-20T19:12:15;9.50;85.20
26821;DHT22;37186;51.394;5.454;2022-11-20T19:15:16;9.50;86.10
26821;DHT22;37186;51.394;5.454;2022-11-20T19:18:17;9.50;85.20
26821;DHT22;37186;51.394;5.454;2022-11-20T19:21:20;9.50;85.70
26821;DHT22;37186;51.394;5.454;2022-11-20T19:24:21;9.50;85.20
26821;DHT22;37186;51.394;5.454;2022-11-20T19:27:22;9.50;85.10
26821;DHT22;37186;51.394;5.454;2022-11-20T19:30:23;9.50;85.20
26821;DHT22;37186;51.394;5.454;2022-11-20T19:33:23;9.50;85.20
26821;DHT22;37186;51.394;5.454;2022-11-20T19:36:26;9.50;85.30
26821;DHT22;37186;51.394;5.454;2022-11-20T19:39:27;9.50;85.20
26821;DHT22;37186;51.394;5.454;2022-11-20T19:42:27;9.50;85.40
26821;DHT22;37186;51.394;5.454;2022-11-20T19:45:28;9.50;85.20
26821;DHT22;37186;51.394;5.454;2022-11-20T19:48:32;9.50;85.20
26821;DHT22;37186;51.394;5.454;2022-11-20T19:51:34;9.50;85.10
26821;DHT22;37186;51.394;5.454;2022-11-20T19:54:35;9.60;85.10
26821;DHT22;37186;51.394;5.454;2022-11-20T19:57:35;9.60;85.00
26821;DHT22;37186;51.394;5.454;2022-11-20T20:00:36;9.60;85.10
26821;DHT22;37186;51.394;5.454;2022-11-20T20:03:37;9.60;85.00
26821;DHT22;37186;51.394;5.454;2022-11-20T20:06:38;9.60;85.00
26821;DHT22;37186;51.394;5.454;2022-11-20T20:09:39;9.60;85.00
26821;DHT22;37186;51.394;5.454;2022-11-20T20:12:40;9.60;85.00
26821;DHT22;37186;51.394;5.454;2022-11-20T20:15:41;9.60;85.00
26821;DHT22;37186;51.394;5.454;2022-11-20T20:18:42;9.60;85.00
26821;DHT22;37186;51.394;5.454;2022-11-20T20:21:43;9.60;85.10
26821;DHT22;37186;51.394;5.454;2022-11-20T20:24:44;9.60;85.00
26821;DHT22;37186;51.394;5.454;2022-11-20T20:27:44;9.60;85.00
26821;DHT22;37186;51.394;5.454;2022-11-20T20:30:45;9.60;84.90
26821;DHT22;37186;51.394;5.454;2022-11-20T20:33:45;9.60;85.00
26821;DHT22;37186;51.394;5.454;2022-11-20T20:36:46;9.60;84.90
26821;DHT22;37186;51.394;5.454;2022-11-20T20:39:47;9.60;85.00
26821;DHT22;37186;51.394;5.454;2022-11-20T20:42:47;9.60;84.90
26821;DHT22;37186;51.394;5.454;2022-11-20T20:45:49;9.60;85.00